Terminal Aerodrome Forecast
Issued by NWS

Current Version | Previous Version | Text Only | Print | Product List | Glossary Off
Versions: 1 2 3 4 5 6 7 8 9 10 11 12 13 14 15 16 17 18 19 20 21 22 23 24 25 26

000
FTUS41 KRLX 111700
TAFCKB
TAF
KCKB 111736Z 1118/1218 00000KT P6SM SCT050
     FM120800 00000KT 3SM BR FEW045
     FM120900 00000KT 2SM BR FEW045
     FM121100 00000KT 4SM BR FEW050
     FM121200 VRB03KT P6SM FEW045=

USA.gov is the U.S. government's official web portal to all federal, state and local government web resources and services.